ADDS METAR Data INFO
IDs: Format: Raw Decoded Include TAF

Data at: 0143 UTC 17 Oct 2017

KFNB 170053Z AUTO 18007KT 10SM CLR 16/04 A3018 RMK AO2 SLP221 T01560039
KFNB 162353Z AUTO 18007KT 10SM CLR 18/03 A3017 RMK AO2 SLP218 T01830033 10217 20183 56013
KFNB 162253Z AUTO 20011KT 10SM CLR 21/02 A3018 RMK AO2 SLP219 T02060022
KFNB 162153Z AUTO 19011G18KT 10SM CLR 22/03 A3019 RMK AO2 SLP223 T02170028
KFNB 162053Z AUTO 21012G20KT 10SM CLR 22/03 A3021 RMK AO2 SLP230 T02170028 56030
KFNB 161953Z AUTO 22014G21KT 10SM CLR 22/04 A3023 RMK AO2 SLP237 T02170039
KFNB 161853Z AUTO 22013KT 10SM CLR 21/03 A3027 RMK AO2 SLP249 T02110028
KFNB 161753Z AUTO 22010G16KT 10SM CLR 21/04 A3030 RMK AO2 SLP261 T02060039 10206 20017 58022
KFNB 161653Z AUTO 18009KT 10SM CLR 18/03 A3033 RMK AO2 SLP272 T01830033
KFNB 161553Z AUTO 18009KT 10SM CLR 16/06 A3035 RMK AO2 SLP279 T01610056
KFNB 161453Z AUTO 15003KT 10SM CLR 11/07 A3037 RMK AO2 SLP286 T01110067 53001
KFNB 161353Z AUTO 00000KT 10SM CLR 05/04 A3037 RMK AO2 SLP287 T00500039
KFNB 161253Z AUTO 00000KT 10SM CLR 02/01 A3036 RMK AO2 SLP286 T00170006
KFNB 161153Z AUTO 00000KT 10SM CLR 02/01 A3037 RMK AO2 SLP287 T00170011 10050 20017 53004
KFNB 161053Z AUTO 00000KT 10SM CLR 03/02 A3036 RMK AO2 SLP284 T00280017
KFNB 160953Z AUTO 00000KT 10SM CLR 03/02 A3035 RMK AO2 SLP282 T00280017
KFNB 160853Z AUTO 00000KT 10SM CLR 03/02 A3035 RMK AO2 SLP281 T00330017 50002
KFNB 160753Z AUTO 00000KT 10SM CLR 03/02 A3036 RMK AO2 SLP282 T00330022
KFNB 160653Z AUTO 30003KT 10SM CLR 03/02 A3036 RMK AO2 SLP282 T00330022
KFNB 160553Z AUTO 00000KT 10SM CLR 04/03 A3035 RMK AO2 SLP279 T00440028 10117 20039 401560039 51002
KFNB 160453Z AUTO 00000KT 10SM CLR 05/03 A3035 RMK AO2 SLP279 T00500033
KFNB 160353Z AUTO 00000KT 10SM CLR 07/03 A3035 RMK AO2 SLP279 T00720028
KFNB 160253Z AUTO 21004KT 10SM CLR 08/02 A3034 RMK AO2 SLP277 T00830022 51003 $
KFNB 160153Z AUTO 20006KT 10SM CLR 09/03 A3034 RMK AO2 SLP275 T00890028 $
KFNB 160053Z AUTO 22004KT 10SM CLR 09/02 A3034 RMK AO2 SLP277 T00940022 $
KFNB 152353Z AUTO 28004KT 10SM CLR 11/02 A3033 RMK AO2 SLP273 T01110022 10156 20111 58001 $
KFNB 152253Z AUTO 30006KT 10SM CLR 14/02 A3033 RMK AO2 SLP272 T01390017
KFNB 152153Z AUTO 30010KT 10SM CLR 15/01 A3033 RMK AO2 SLP273 T01500011
KFNB 152148Z AUTO 33008KT 10SM FEW002 15/01 A3033 RMK AO2
KFNB 152053Z AUTO 31007KT 290V350 10SM CLR 15/01 A3034 RMK AO2 SLP274 T01500011 55007
KFNB 151953Z AUTO 33009KT 10SM CLR 15/02 A3034 RMK AO2 SLP272 T01500017
KFNB 151853Z AUTO 34010KT 10SM CLR 14/01 A3035 RMK AO2 SLP275 T01390011
KFNB 151753Z AUTO 33009G19KT 10SM CLR 13/02 A3036 RMK AO2 SLP281 T01330022 10133 20067 50008
KFNB 151653Z AUTO 31013G19KT 10SM CLR 12/03 A3036 RMK AO2 SLP283 T01170033
KFNB 151553Z AUTO 30009G16KT 10SM CLR 10/04 A3036 RMK AO2 SLP280 T01000039
KFNB 151453Z AUTO 32011G17KT 10SM CLR 08/04 A3033 RMK AO2 SLP273 T00830039 51021
KFNB 151353Z AUTO 29010KT 10SM FEW023 08/04 A3031 RMK AO2 SLP266 T00780044
KFNB 151351Z AUTO 30008KT 10SM SCT023 08/04 A3031 RMK AO2